DLH3509 EETN-EDDF
Flight info
| Callsign | DLH3509 |
|---|---|
| Flight time | N/A |
| Altitude | 36000 |
| Route | LONSA DCT SUVIX DCT PIMEX P739 DEREX DCT KOLJA DCT GOSOT DCT BANUB DCT POVEL DCT RIMET/N0412F310 T157 KOKEB/N0362F230 T157 KERAX KERAX5D |
| Aircraft | A320/M-SDE3FGHIRWY/LB1 |
Departure
| Time | 2026-05-01 10:38 |
|---|---|
| Airport | Lennart Meri Tallinn Airport (EETN) |
Arrival
| Time | N/A |
|---|---|
| Airport | Frankfurt Main Airport (EDDF) |
| Time | Latitude | Longitude | Altitude | Speed | Heading |
|---|---|---|---|---|---|
| 2026-05-01 10:01 | 59.41737 | 24.80583 | 139 ft | 0 kts | 358° |
| 2026-05-01 10:05 | 59.41740 | 24.80583 | 139 ft | 0 kts | 358° |
| 2026-05-01 10:05 | 59.41570 | 24.80843 | 139 ft | 0 kts | 181° |
| 2026-05-01 10:30 | 59.41591 | 24.80843 | 138 ft | 4 kts | 181° |
| 2026-05-01 10:30 | 59.41639 | 24.80845 | 138 ft | 3 kts | 181° |
| 2026-05-01 10:31 | 59.41665 | 24.80797 | 138 ft | 3 kts | 90° |
| 2026-05-01 10:31 | 59.41665 | 24.80738 | 138 ft | 0 kts | 90° |
| 2026-05-01 10:33 | 59.41665 | 24.81016 | 139 ft | 14 kts | 90° |
| 2026-05-01 10:34 | 59.41628 | 24.81171 | 139 ft | 13 kts | 158° |
| 2026-05-01 10:34 | 59.41521 | 24.81209 | 139 ft | 16 kts | 138° |
| 2026-05-01 10:34 | 59.41505 | 24.81413 | 139 ft | 19 kts | 91° |
| 2026-05-01 10:35 | 59.41502 | 24.82110 | 139 ft | 27 kts | 90° |
| 2026-05-01 10:35 | 59.41502 | 24.82517 | 139 ft | 34 kts | 88° |
| 2026-05-01 10:35 | 59.41506 | 24.82983 | 140 ft | 34 kts | 91° |
| 2026-05-01 10:35 | 59.41499 | 24.83460 | 140 ft | 35 kts | 90° |
| 2026-05-01 10:36 | 59.41498 | 24.84436 | 140 ft | 37 kts | 90° |
| 2026-05-01 10:36 | 59.41494 | 24.84886 | 141 ft | 23 kts | 97° |
| 2026-05-01 10:36 | 59.41381 | 24.85000 | 141 ft | 20 kts | 179° |
| 2026-05-01 10:37 | 59.41324 | 24.84878 | 141 ft | 0 kts | 269° |
| 2026-05-01 10:37 | 59.41324 | 24.84851 | 141 ft | 18 kts | 269° |
| 2026-05-01 10:37 | 59.41325 | 24.84077 | 139 ft | 91 kts | 270° |
| 2026-05-01 10:38 | 59.41330 | 24.82462 | 137 ft | 144 kts | 270° |
| 2026-05-01 10:38 | 59.41339 | 24.80363 | 593 ft | 155 kts | 271° |
| 2026-05-01 10:38 | 59.41330 | 24.78221 | 1297 ft | 158 kts | 270° |
| 2026-05-01 10:38 | 59.41294 | 24.76089 | 1985 ft | 157 kts | 268° |
| 2026-05-01 10:39 | 59.41067 | 24.73925 | 2549 ft | 175 kts | 240° |
| 2026-05-01 10:39 | 59.40269 | 24.71861 | 3267 ft | 203 kts | 232° |
| 2026-05-01 10:39 | 59.39285 | 24.69633 | 4043 ft | 228 kts | 232° |
| 2026-05-01 10:39 | 59.38205 | 24.67118 | 4832 ft | 253 kts | 234° |
| 2026-05-01 10:40 | 59.37093 | 24.64372 | 5813 ft | 266 kts | 235° |
| 2026-05-01 10:40 | 59.35959 | 24.61425 | 6968 ft | 274 kts | 237° |
| 2026-05-01 10:40 | 59.34821 | 24.58352 | 8106 ft | 281 kts | 238° |
| 2026-05-01 10:40 | 59.33681 | 24.55187 | 9283 ft | 287 kts | 239° |
| 2026-05-01 10:41 | 59.32527 | 24.51931 | 10413 ft | 294 kts | 239° |
| 2026-05-01 10:41 | 59.31327 | 24.48504 | 11079 ft | 318 kts | 240° |
| 2026-05-01 10:41 | 59.28714 | 24.40997 | 12639 ft | 346 kts | 240° |
| 2026-05-01 10:42 | 59.27338 | 24.37083 | 13659 ft | 352 kts | 240° |
| 2026-05-01 10:42 | 59.26413 | 24.34462 | 14289 ft | 356 kts | 240° |
| 2026-05-01 10:42 | 59.24518 | 24.29114 | 15440 ft | 364 kts | 240° |
| 2026-05-01 10:42 | 59.23537 | 24.26347 | 16007 ft | 368 kts | 240° |
| 2026-05-01 10:43 | 59.22069 | 24.22208 | 16827 ft | 373 kts | 240° |
| 2026-05-01 10:43 | 59.20595 | 24.18050 | 17636 ft | 379 kts | 241° |
| 2026-05-01 10:43 | 59.19081 | 24.13779 | 18422 ft | 385 kts | 241° |
| 2026-05-01 10:43 | 59.17547 | 24.09457 | 19117 ft | 390 kts | 241° |
| 2026-05-01 10:44 | 59.15986 | 24.05074 | 19823 ft | 395 kts | 241° |
| 2026-05-01 10:44 | 59.14405 | 24.00645 | 20514 ft | 399 kts | 241° |
| 2026-05-01 10:44 | 59.12830 | 23.96246 | 21168 ft | 403 kts | 241° |
| 2026-05-01 10:44 | 59.11209 | 23.91729 | 21790 ft | 407 kts | 241° |
| 2026-05-01 10:45 | 59.09576 | 23.87196 | 22358 ft | 411 kts | 241° |
| 2026-05-01 10:45 | 59.07931 | 23.82616 | 22940 ft | 414 kts | 242° |
| 2026-05-01 10:45 | 59.06353 | 23.77896 | 23477 ft | 416 kts | 244° |
| 2026-05-01 10:45 | 59.04852 | 23.73064 | 23970 ft | 418 kts | 246° |
| 2026-05-01 10:46 | 59.03469 | 23.68439 | 24379 ft | 420 kts | 246° |
| 2026-05-01 10:46 | 59.02049 | 23.63638 | 24802 ft | 422 kts | 246° |
| 2026-05-01 10:46 | 59.00570 | 23.58690 | 25194 ft | 425 kts | 246° |
| 2026-05-01 10:46 | 58.99060 | 23.53725 | 25587 ft | 427 kts | 245° |
| 2026-05-01 10:47 | 58.97521 | 23.48754 | 25997 ft | 428 kts | 245° |
| 2026-05-01 10:47 | 58.95971 | 23.43809 | 26409 ft | 430 kts | 244° |
| 2026-05-01 10:47 | 58.94408 | 23.38860 | 26787 ft | 432 kts | 244° |
| 2026-05-01 10:47 | 58.92856 | 23.33953 | 27144 ft | 434 kts | 244° |
| 2026-05-01 10:48 | 58.91278 | 23.28953 | 27458 ft | 437 kts | 244° |
| 2026-05-01 10:48 | 58.89687 | 23.23898 | 27793 ft | 439 kts | 244° |
| 2026-05-01 10:48 | 58.88091 | 23.18835 | 28098 ft | 440 kts | 243° |
| 2026-05-01 10:48 | 58.86493 | 23.13775 | 28427 ft | 442 kts | 244° |
| 2026-05-01 10:49 | 58.84881 | 23.08681 | 28745 ft | 445 kts | 244° |
| 2026-05-01 10:49 | 58.83281 | 23.03626 | 29074 ft | 447 kts | 244° |
| 2026-05-01 10:49 | 58.81650 | 22.98490 | 29428 ft | 450 kts | 244° |
| 2026-05-01 10:49 | 58.80005 | 22.93335 | 29745 ft | 452 kts | 244° |
| 2026-05-01 10:50 | 58.78347 | 22.88159 | 30059 ft | 454 kts | 244° |
| 2026-05-01 10:50 | 58.76685 | 22.82975 | 30361 ft | 456 kts | 244° |
| 2026-05-01 10:50 | 58.75010 | 22.77751 | 30618 ft | 458 kts | 244° |
| 2026-05-01 10:50 | 58.73328 | 22.72514 | 30867 ft | 459 kts | 243° |
| 2026-05-01 10:51 | 58.71635 | 22.67273 | 31095 ft | 461 kts | 243° |
| 2026-05-01 10:51 | 58.69932 | 22.62022 | 31345 ft | 463 kts | 243° |
| 2026-05-01 10:51 | 58.68244 | 22.56835 | 31615 ft | 464 kts | 243° |
| 2026-05-01 10:51 | 58.66504 | 22.51603 | 31988 ft | 462 kts | 242° |
| 2026-05-01 10:52 | 58.64754 | 22.46444 | 32449 ft | 459 kts | 242° |
| 2026-05-01 10:52 | 58.62999 | 22.41328 | 32854 ft | 457 kts | 242° |
| 2026-05-01 10:52 | 58.61245 | 22.36236 | 33232 ft | 455 kts | 242° |
| 2026-05-01 10:52 | 58.59525 | 22.31225 | 33590 ft | 454 kts | 242° |
| 2026-05-01 10:53 | 58.57794 | 22.26162 | 33953 ft | 453 kts | 242° |
| 2026-05-01 10:53 | 58.56073 | 22.21101 | 34307 ft | 451 kts | 242° |
| 2026-05-01 10:53 | 58.54362 | 22.16067 | 34602 ft | 451 kts | 242° |
| 2026-05-01 10:53 | 58.52643 | 22.11031 | 34827 ft | 451 kts | 242° |
| 2026-05-01 10:54 | 58.50936 | 22.06057 | 35049 ft | 452 kts | 242° |
| 2026-05-01 10:54 | 58.49204 | 22.01033 | 35294 ft | 452 kts | 242° |
| 2026-05-01 10:54 | 58.47467 | 21.96018 | 35535 ft | 452 kts | 241° |
| 2026-05-01 10:54 | 58.45725 | 21.90996 | 35768 ft | 452 kts | 241° |
| 2026-05-01 10:55 | 58.43992 | 21.86006 | 36015 ft | 451 kts | 241° |
| 2026-05-01 10:55 | 58.42274 | 21.81065 | 36212 ft | 452 kts | 241° |
| 2026-05-01 10:55 | 58.40518 | 21.76027 | 36271 ft | 456 kts | 241° |
| 2026-05-01 10:56 | 58.36958 | 21.65816 | 36272 ft | 466 kts | 241° |
| 2026-05-01 10:56 | 58.33347 | 21.55493 | 36243 ft | 475 kts | 241° |
| 2026-05-01 10:57 | 58.29639 | 21.44963 | 36271 ft | 484 kts | 240° |
| 2026-05-01 10:57 | 58.26010 | 21.34734 | 36440 ft | 467 kts | 240° |
| 2026-05-01 10:58 | 58.22593 | 21.25170 | 36255 ft | 452 kts | 240° |
| 2026-05-01 10:58 | 58.18521 | 21.16208 | 36270 ft | 452 kts | 229° |
| 2026-05-01 10:59 | 58.14069 | 21.07783 | 36270 ft | 452 kts | 229° |
| 2026-05-01 10:59 | 58.09604 | 20.99356 | 36580 ft | 453 kts | 230° |
| 2026-05-01 10:59 | 58.07386 | 20.95180 | 36260 ft | 456 kts | 229° |
| 2026-05-01 11:00 | 58.05146 | 20.90970 | 36274 ft | 454 kts | 229° |
| 2026-05-01 11:00 | 58.00655 | 20.82570 | 36280 ft | 453 kts | 229° |
| 2026-05-01 11:01 | 57.96165 | 20.74202 | 36280 ft | 453 kts | 229° |
| 2026-05-01 11:01 | 57.91695 | 20.65897 | 36280 ft | 454 kts | 229° |
| 2026-05-01 11:02 | 57.87179 | 20.57534 | 36270 ft | 455 kts | 229° |
| 2026-05-01 11:02 | 57.82647 | 20.49183 | 36279 ft | 456 kts | 229° |
| 2026-05-01 11:03 | 57.78106 | 20.40850 | 36275 ft | 456 kts | 229° |
| 2026-05-01 11:03 | 57.73590 | 20.32595 | 36291 ft | 456 kts | 228° |
| 2026-05-01 11:04 | 57.69042 | 20.24311 | 36279 ft | 455 kts | 228° |
| 2026-05-01 11:04 | 57.64776 | 20.15625 | 36282 ft | 453 kts | 234° |
| 2026-05-01 11:05 | 57.60701 | 20.06728 | 36284 ft | 453 kts | 233° |
| 2026-05-01 11:05 | 57.56576 | 19.97809 | 36291 ft | 454 kts | 233° |
| 2026-05-01 11:06 | 57.52459 | 19.88938 | 36293 ft | 454 kts | 233° |
| 2026-05-01 11:06 | 57.48318 | 19.80023 | 36296 ft | 455 kts | 233° |
| 2026-05-01 11:07 | 57.42073 | 19.66652 | 36284 ft | 456 kts | 233° |
| 2026-05-01 11:07 | 57.37919 | 19.57816 | 36287 ft | 457 kts | 233° |
| 2026-05-01 11:08 | 57.33721 | 19.48917 | 36289 ft | 458 kts | 233° |
| 2026-05-01 11:09 | 57.27428 | 19.35630 | 36286 ft | 458 kts | 233° |
| 2026-05-01 11:09 | 57.23221 | 19.26779 | 36314 ft | 457 kts | 233° |
| 2026-05-01 11:10 | 57.16938 | 19.13609 | 36318 ft | 457 kts | 232° |
| 2026-05-01 11:10 | 57.12744 | 19.04886 | 36326 ft | 457 kts | 232° |
| 2026-05-01 11:11 | 57.08518 | 18.96133 | 36318 ft | 457 kts | 232° |
| 2026-05-01 11:11 | 57.04287 | 18.87391 | 36321 ft | 457 kts | 232° |
| 2026-05-01 11:12 | 57.00048 | 18.78668 | 36313 ft | 458 kts | 232° |
| 2026-05-01 11:12 | 56.95802 | 18.69935 | 36318 ft | 458 kts | 232° |
| 2026-05-01 11:13 | 56.91567 | 18.61263 | 36318 ft | 459 kts | 232° |
| 2026-05-01 11:13 | 56.87298 | 18.52565 | 36327 ft | 459 kts | 232° |
| 2026-05-01 11:14 | 56.83005 | 18.43858 | 36322 ft | 460 kts | 231° |
| 2026-05-01 11:14 | 56.80163 | 18.38108 | 36308 ft | 460 kts | 231° |